Time;durP1;ratioP1;P1;durP2;ratioP2;P2;SDS_P1;SDS_P2;PMS_P1;PMS_P2;Temp;Humidity;BMP_temperature;BMP_pressure;BME280_temperature;BME280_humidity;BME280_pressure;Samples;Min_cycle;Max_cycle;Signal;HPM_P1;HPM_P2
2022/02/04 00:24:13;;;;;;;27.10;16.50;;;;;;;5.43;100.00;100264.03;6157425;23;20092;-79
2022/02/04 00:26:48;;;;;;;26.97;14.83;;;;;;;5.34;100.00;100264.94;6178921;23;20087;-79
2022/02/04 00:29:22;;;;;;;27.93;15.20;;;;;;;5.32;100.00;100263.22;6108925;23;20108;-79
2022/02/04 00:31:55;;;;;;;30.47;17.00;;;;;;;5.36;100.00;100257.06;6153710;23;20068;-79
2022/02/04 00:34:25;;;;;;;31.95;16.92;;;;;;;5.36;100.00;100259.69;6156548;23;20017;-79
2022/02/04 00:37:08;;;;;;;29.70;15.70;;;;;;;5.32;100.00;100258.84;6130427;23;20056;-79
2022/02/04 00:39:43;;;;;;;26.00;14.50;;;;;;;5.28;100.00;100258.88;6134745;23;20056;-79
2022/02/04 00:42:13;;;;;;;26.73;14.90;;;;;;;5.26;100.00;100258.03;6134639;23;20071;-81
2022/02/04 00:44:43;;;;;;;31.03;16.03;;;;;;;5.27;100.00;100259.75;6109658;23;20024;-81
2022/02/04 00:47:33;;;;;;;32.63;16.03;;;;;;;5.25;100.00;100262.38;6159293;23;20067;-81
2022/02/04 00:50:09;;;;;;;31.33;15.87;;;;;;;5.25;100.00;100264.13;6131777;23;20099;-80
2022/02/04 00:52:40;;;;;;;27.87;15.93;;;;;;;5.23;100.00;100258.03;6136650;23;20028;-82
2022/02/04 01:27:33;;;;;;;33.40;15.63;;;;;;;5.22;100.00;100259.78;6137773;23;20025;-78
2022/02/04 01:30:15;;;;;;;33.27;16.93;;;;;;;5.20;100.00;100258.03;6155062;23;20338;-80
2022/02/04 01:32:42;;;;;;;34.80;17.57;;;;;;;5.16;100.00;100265.06;6112519;23;20025;-78
2022/02/04 01:35:08;;;;;;;30.63;17.27;;;;;;;5.18;100.00;100263.28;6131835;23;20360;-80
2022/02/04 01:37:35;;;;;;;36.53;19.13;;;;;;;5.23;100.00;100261.53;6110017;23;20464;-78
2022/02/04 01:40:03;;;;;;;35.20;17.10;;;;;;;5.21;100.00;100258.06;6131448;23;20025;-78
2022/02/04 01:42:29;;;;;;;30.63;17.63;;;;;;;5.19;100.00;100256.31;6133277;23;20021;-78
2022/02/04 01:44:56;;;;;;;30.30;17.17;;;;;;;5.15;100.00;100258.06;6136157;23;20025;-81
2022/02/04 01:47:23;;;;;;;40.90;20.10;;;;;;;5.22;100.00;100258.94;6109193;23;20021;-80
2022/02/04 01:49:52;;;;;;;34.37;17.83;;;;;;;5.23;100.00;100255.44;6131393;23;20028;-80
2022/02/04 01:52:21;;;;;;;36.57;20.53;;;;;;;5.23;100.00;100258.91;6108887;23;20021;-80
2022/02/04 01:54:50;;;;;;;34.93;19.70;;;;;;;5.23;100.00;100258.91;6107524;23;20025;-80
2022/02/04 01:57:17;;;;;;;38.33;20.10;;;;;;;5.18;100.00;100259.81;6107437;23;20075;-80
2022/02/04 01:59:44;;;;;;;37.13;20.57;;;;;;;5.16;100.00;100258.94;6131194;23;20079;-79
2022/02/04 02:02:10;;;;;;;32.53;17.87;;;;;;;5.15;100.00;100257.22;6106015;23;20021;-81
2022/02/04 02:04:37;;;;;;;36.60;19.03;;;;;;;5.15;100.00;100257.22;6133025;23;20025;-80
2022/02/04 02:07:10;;;;;;;37.77;17.93;;;;;;;5.14;100.00;100252.84;6154679;23;20054;-80
2022/02/04 02:10:20;;;;;;;36.30;18.90;;;;;;;5.12;100.00;100251.97;6109877;23;20032;-80
2022/02/04 02:12:33;;;;;;;38.87;20.23;;;;;;;5.18;100.00;100260.66;6122160;23;20025;-81
2022/02/04 02:15:15;;;;;;;41.72;20.50;;;;;;;5.23;100.00;100255.44;6108661;23;20021;-79
2022/02/04 02:38:12;;;;;;;42.37;20.50;;;;;;;5.11;100.00;100258.97;6134146;23;20020;-80
2022/02/04 02:41:03;;;;;;;39.33;20.10;;;;;;;5.08;100.00;100252.00;6136143;23;20028;-80
2022/02/04 02:59:29;;;;;;;36.33;19.17;;;;;;;5.06;100.00;100232.81;6160312;23;20028;-81
2022/02/04 03:01:56;;;;;;;37.93;19.13;;;;;;;5.11;100.00;100227.53;6106477;23;20020;-80
2022/02/04 03:04:22;;;;;;;39.10;20.90;;;;;;;5.08;100.00;100230.19;6132267;23;20025;-81
2022/02/04 03:06:49;;;;;;;36.20;18.63;;;;;;;5.07;100.00;100231.06;6105794;23;20842;-80
2022/02/04 03:09:16;;;;;;;36.50;18.70;;;;;;;5.04;100.00;100223.19;6131718;23;20025;-80
2022/02/04 03:11:43;;;;;;;34.97;19.50;;;;;;;5.02;100.00;100220.59;6105238;23;20016;-81
2022/02/04 03:14:10;;;;;;;36.43;19.47;;;;;;;4.99;100.00;100220.63;6107186;23;20388;-80
2022/02/04 03:16:37;;;;;;;39.47;18.97;;;;;;;5.05;100.00;100217.13;6155185;23;20032;-81
2022/02/04 03:19:06;;;;;;;34.83;18.47;;;;;;;5.04;100.00;100218.88;6132825;23;20416;-80
2022/02/04 03:21:38;;;;;;;39.57;19.50;;;;;;;5.09;100.00;100224.94;6105744;23;20017;-80
2022/02/04 03:24:10;;;;;;;35.43;19.43;;;;;;;5.05;100.00;100223.22;6108943;23;20024;-80
2022/02/04 03:26:48;;;;;;;36.67;19.23;;;;;;;5.09;100.00;100217.06;6107010;23;20021;-80
2022/02/04 03:29:20;;;;;;;43.57;20.07;;;;;;;5.11;100.00;100221.44;6132075;23;20076;-80
2022/02/04 03:31:51;;;;;;;39.70;18.30;;;;;;;5.07;100.00;100226.69;6130608;23;20029;-81
2022/02/04 03:34:18;;;;;;;34.13;18.83;;;;;;;5.06;100.00;100221.47;6132938;23;20021;-79
2022/02/04 03:36:45;;;;;;;38.40;19.67;;;;;;;5.01;100.00;100218.84;6130134;23;20029;-82
2022/02/04 03:39:12;;;;;;;39.37;18.57;;;;;;;5.05;100.00;100219.72;6108225;23;20048;-80
2022/02/04 03:41:38;;;;;;;34.57;17.73;;;;;;;5.05;100.00;100223.22;6100388;23;20028;-80
2022/02/04 03:44:05;;;;;;;34.17;18.73;;;;;;;5.00;100.00;100222.38;6131982;23;20036;-80
2022/02/04 03:46:32;;;;;;;36.83;19.47;;;;;;;5.02;100.00;100220.59;6103667;23;20056;-80
2022/02/04 03:48:58;;;;;;;40.97;18.60;;;;;;;5.07;100.00;100226.69;6106005;23;20076;-80
2022/02/04 03:51:25;;;;;;;40.60;20.50;;;;;;;5.01;100.00;100228.47;6129085;23;20032;-81
2022/02/04 03:53:52;;;;;;;34.30;18.33;;;;;;;5.03;100.00;100224.94;6106936;23;20021;-80
2022/02/04 03:56:20;;;;;;;37.63;18.67;;;;;;;4.97;100.00;100229.38;6105977;23;20032;-81
2022/02/04 03:58:46;;;;;;;34.57;19.43;;;;;;;5.01;100.00;100231.09;6131751;23;20096;-80
2022/02/04 04:01:13;;;;;;;36.53;20.17;;;;;;;5.03;100.00;100231.94;6104713;23;20021;-82
2022/02/04 04:03:40;;;;;;;41.03;20.53;;;;;;;5.06;100.00;100227.56;6131799;23;20021;-80
2022/02/04 04:06:07;;;;;;;35.27;19.03;;;;;;;5.02;100.00;100233.69;6105990;23;20080;-80
2022/02/04 04:08:34;;;;;;;36.43;17.97;;;;;;;5.01;100.00;100233.69;6156363;23;20021;-81
2022/02/04 04:11:01;;;;;;;33.43;18.23;;;;;;;4.97;100.00;100230.25;6128518;23;20025;-80
2022/02/04 04:13:28;;;;;;;42.50;20.07;;;;;;;4.91;100.00;100222.41;6131058;23;20360;-81
2022/02/04 04:15:55;;;;;;;37.20;19.43;;;;;;;4.97;100.00;100217.16;6106236;23;20025;-80
2022/02/04 04:18:22;;;;;;;41.67;20.17;;;;;;;5.01;100.00;100215.38;6158828;23;20032;-80
2022/02/04 04:20:48;;;;;;;37.33;19.07;;;;;;;4.94;100.00;100205.81;6106770;23;20025;-80
2022/02/04 04:23:15;;;;;;;40.57;20.10;;;;;;;5.00;100.00;100211.88;6133749;23;20035;-81
2022/02/04 04:25:42;;;;;;;35.63;17.70;;;;;;;4.96;100.00;100219.75;6107802;23;20025;-82
2022/02/04 04:28:09;;;;;;;36.27;18.17;;;;;;;4.92;100.00;100218.91;6109677;23;20055;-79
2022/02/04 04:30:36;;;;;;;35.70;18.67;;;;;;;4.95;100.00;100220.63;6106681;23;20029;-80
2022/02/04 04:33:03;;;;;;;37.50;19.53;;;;;;;4.90;100.00;100211.94;6132961;23;20075;-81
2022/02/04 04:35:30;;;;;;;36.90;20.30;;;;;;;5.03;100.00;100211.00;6107887;23;20457;-80
2022/02/04 05:29:54;;;;;;;34.47;18.00;;;;;;;4.87;100.00;100215.44;6131209;23;20029;-79
2022/02/04 05:32:20;;;;;;;37.50;17.90;;;;;;;4.83;100.00;100213.72;6131843;23;20013;-80
2022/02/04 05:34:49;;;;;;;36.30;17.67;;;;;;;4.79;100.00;100217.22;6108490;23;20080;-79
2022/02/04 05:37:19;;;;;;;37.23;18.17;;;;;;;4.82;100.00;100211.13;6108642;23;20099;-80
2022/02/04 05:39:54;;;;;;;47.17;20.10;;;;;;;4.83;100.00;100205.00;6133226;23;20029;-80
2022/02/04 05:42:29;;;;;;;37.17;18.60;;;;;;;4.82;100.00;100216.34;6133822;23;20040;-79
2022/02/04 05:45:15;;;;;;;33.03;17.87;;;;;;;4.80;100.00;100221.59;6107867;23;20035;-80
2022/02/04 05:47:42;;;;;;;38.00;18.53;;;;;;;4.94;100.00;100219.75;6137620;23;20401;-82
2022/02/04 05:50:16;;;;;;;35.10;18.87;;;;;;;4.90;100.00;100217.19;6131657;23;20408;-82
2022/02/04 05:53:02;;;;;;;40.30;19.02;;;;;;;4.86;100.00;100218.94;6159374;23;20076;-81
2022/02/04 06:03:36;;;;;;;35.97;18.43;;;;;;;4.83;100.00;100232.03;6137980;23;20021;-81
2022/02/04 06:08:49;;;;;;;36.67;19.07;;;;;;;4.83;100.00;100239.88;6133226;23;20411;-82
2022/02/04 06:11:32;;;;;;;37.73;19.87;;;;;;;4.81;100.00;100233.81;6135550;23;20025;-79
2022/02/04 06:14:23;;;;;;;42.93;19.37;;;;;;;4.81;100.00;100233.81;6162119;23;20441;-80
2022/02/04 06:22:23;;;;;;;35.47;18.57;;;;;;;4.90;100.00;100228.53;6157524;23;20021;-81
2022/02/04 06:24:52;;;;;;;38.83;18.63;;;;;;;4.82;100.00;100226.81;6158239;23;20024;-80
2022/02/04 06:27:22;;;;;;;34.50;19.70;;;;;;;4.84;100.00;100235.53;6132740;23;20386;-79
2022/02/04 06:29:50;;;;;;;35.13;19.53;;;;;;;4.85;100.00;100227.66;6131819;23;20025;-79
2022/02/04 06:32:18;;;;;;;36.83;18.67;;;;;;;4.81;100.00;100225.94;6156094;23;20449;-82
2022/02/04 06:34:46;;;;;;;41.40;20.13;;;;;;;4.80;100.00;100227.69;6131661;23;20025;-80
2022/02/04 06:37:12;;;;;;;37.67;19.57;;;;;;;4.82;100.00;100222.44;6131628;23;20071;-78
2022/02/04 06:39:39;;;;;;;41.90;19.20;;;;;;;4.82;100.00;100216.34;6132563;23;20021;-81
2022/02/04 06:42:09;;;;;;;35.00;17.53;;;;;;;4.79;100.00;100235.53;6130018;23;20028;-78
2022/02/04 06:44:36;;;;;;;39.07;19.20;;;;;;;4.79;100.00;100225.06;6133345;23;20031;-78
2022/02/04 06:47:04;;;;;;;41.13;20.60;;;;;;;4.76;100.00;100231.19;6131571;23;20027;-77
2022/02/04 06:49:31;;;;;;;35.87;18.50;;;;;;;4.77;100.00;100229.44;6108774;23;20032;-78
2022/02/04 06:51:57;;;;;;;35.33;18.30;;;;;;;4.78;100.00;100224.19;6130385;23;20456;-79
2022/02/04 06:54:24;;;;;;;37.30;18.30;;;;;;;4.84;100.00;100214.59;6108781;23;20044;-79
2022/02/04 06:56:51;;;;;;;37.40;19.27;;;;;;;4.81;100.00;100220.72;6106620;23;20732;-78
2022/02/04 06:59:17;;;;;;;38.13;21.03;;;;;;;4.82;100.00;100218.97;6132653;23;20029;-82
2022/02/04 07:01:44;;;;;;;37.80;19.27;;;;;;;4.85;100.00;100213.69;6105166;23;20021;-79
2022/02/04 07:04:12;;;;;;;39.70;20.10;;;;;;;4.86;100.00;100212.81;6132584;23;20020;-78
2022/02/04 07:06:43;;;;;;;40.90;21.70;;;;;;;4.89;100.00;100218.06;6106180;23;20025;-81
2022/02/04 07:17:22;;;;;;;37.77;17.93;;;;;;;4.92;100.00;100223.28;6132334;23;20118;-78
2022/02/04 07:19:49;;;;;;;35.77;19.40;;;;;;;4.92;100.00;100218.03;6110884;23;20021;-78
2022/02/04 07:22:18;;;;;;;35.23;18.37;;;;;;;4.91;100.00;100211.94;6130743;23;20021;-82
2022/02/04 07:24:46;;;;;;;38.53;19.87;;;;;;;4.94;100.00;100216.28;6156112;23;20028;-79
2022/02/04 07:27:13;;;;;;;33.10;17.53;;;;;;;4.93;100.00;100218.03;6131287;23;20046;-78
2022/02/04 07:29:42;;;;;;;36.83;18.37;;;;;;;4.97;100.00;100216.28;6131662;23;20028;-77
2022/02/04 07:32:15;;;;;;;37.50;20.27;;;;;;;4.99;100.00;100218.00;6154536;23;20031;-82
2022/02/04 07:34:59;;;;;;;36.63;18.43;;;;;;;4.90;100.00;100220.66;6157692;23;20017;-80
2022/02/04 07:43:02;;;;;;;35.33;18.60;;;;;;;5.00;100.00;100217.13;6136159;23;20021;-82
2022/02/04 07:45:29;;;;;;;38.53;19.13;;;;;;;5.07;100.00;100210.13;6154829;23;20103;-82
2022/02/04 07:47:56;;;;;;;33.17;18.47;;;;;;;5.08;100.00;100220.56;6132336;23;20028;-78
2022/02/04 07:50:23;;;;;;;38.00;19.23;;;;;;;5.04;100.00;100207.50;6129837;23;20017;-81
2022/02/04 07:52:51;;;;;;;37.27;20.10;;;;;;;5.13;100.00;100207.47;6132689;23;20020;-78
2022/02/04 07:55:18;;;;;;;35.07;19.27;;;;;;;5.09;100.00;100201.38;6155470;23;20087;-78
2022/02/04 07:57:45;;;;;;;38.90;20.00;;;;;;;5.20;100.00;100214.38;6108900;23;20087;-79
2022/02/04 08:00:15;;;;;;;34.17;18.40;;;;;;;5.06;100.00;100204.00;6154088;23;20091;-79
2022/02/04 08:02:44;;;;;;;34.53;19.33;;;;;;;5.08;100.00;100207.47;6109803;23;20026;-79
2022/02/04 08:05:15;;;;;;;36.40;18.77;;;;;;;5.16;100.00;100202.22;6096798;23;20230;-80
2022/02/04 08:10:30;;;;;;;35.87;20.10;;;;;;;5.22;100.00;100203.94;6123819;23;20068;-82
2022/02/04 08:16:27;;;;;;;32.63;17.20;;;;;;;5.27;100.00;100202.13;6104001;23;20045;-80
2022/02/04 08:19:12;;;;;;;34.00;18.88;;;;;;;5.33;100.00;100199.47;6126914;23;20021;-80
2022/02/04 08:24:43;;;;;;;31.97;17.03;;;;;;;5.31;100.00;100190.78;6127410;23;20032;-80
2022/02/04 08:32:54;;;;;;;35.67;18.97;;;;;;;5.48;100.00;100188.91;6127345;23;20028;-80
2022/02/04 08:38:32;;;;;;;31.53;16.67;;;;;;;5.51;100.00;100199.34;6127137;23;20026;-80
2022/02/04 08:46:44;;;;;;;32.93;17.43;;;;;;;5.60;100.00;100183.56;6104888;23;20029;-81
2022/02/04 08:49:36;;;;;;;32.17;15.70;;;;;;;5.76;100.00;100175.56;6126704;23;20397;-82
2022/02/04 08:55:01;;;;;;;32.67;15.50;;;;;;;5.73;100.00;100176.47;6146499;23;20053;-82
2022/02/04 08:57:52;;;;;;;27.50;15.10;;;;;;;5.84;100.00;100181.63;6082000;23;20081;-83
2022/02/04 09:00:28;;;;;;;27.00;15.53;;;;;;;5.81;100.00;100174.66;6100552;23;20057;-82
2022/02/04 09:03:00;;;;;;;25.33;14.13;;;;;;;5.88;100.00;100173.69;6105644;23;20026;-82
2022/02/04 09:05:35;;;;;;;27.33;14.97;;;;;;;5.93;100.00;100174.56;6083719;23;20030;-82
2022/02/04 09:08:20;;;;;;;23.53;14.07;;;;;;;5.96;100.00;100178.03;6129762;23;20028;-81
2022/02/04 09:10:49;;;;;;;27.30;14.83;;;;;;;5.99;100.00;100171.03;6153311;23;20080;-81
2022/02/04 09:18:58;;;;;;;26.20;14.20;;;;;;;6.04;100.00;100163.97;6127868;23;20028;-83
2022/02/04 09:21:38;;;;;;;24.77;13.70;;;;;;;6.06;100.00;100166.59;6075622;23;20487;-83
2022/02/04 09:36:40;;;;;;;24.57;13.07;;;;;;;6.19;100.00;100165.56;6092862;23;20092;-82
2022/02/04 09:39:08;;;;;;;23.83;12.23;;;;;;;6.25;100.00;100165.50;6098376;23;20025;-82
2022/02/04 09:41:36;;;;;;;22.07;13.00;;;;;;;6.29;100.00;100159.34;6144319;23;20025;-82
2022/02/04 09:44:02;;;;;;;19.77;12.00;;;;;;;6.35;100.00;100156.66;6098083;23;20022;-82
2022/02/04 09:46:36;;;;;;;20.70;12.17;;;;;;;6.38;100.00;100156.59;6121026;23;20572;-82
2022/02/04 09:49:05;;;;;;;25.17;12.93;;;;;;;6.39;100.00;100153.13;6123268;23;20418;-82
2022/02/04 09:51:50;;;;;;;24.60;12.13;;;;;;;6.41;100.00;100148.72;6095909;23;20536;-83
2022/02/04 10:08:27;;;;;;;20.73;10.87;;;;;;;6.82;100.00;100126.34;6125600;23;20113;-82
2022/02/04 10:22:15;;;;;;;15.15;9.27;;;;;;;7.29;100.00;100135.25;6122233;23;20030;-83
2022/02/04 10:24:42;;;;;;;16.03;9.67;;;;;;;7.29;100.00;100130.88;6121840;23;20104;-82
2022/02/04 10:27:16;;;;;;;15.23;9.10;;;;;;;7.19;100.00;100121.41;6072778;23;20030;-83
2022/02/04 10:29:50;;;;;;;14.80;9.23;;;;;;;7.21;100.00;100130.13;6121960;23;20025;-82
2022/02/04 10:32:17;;;;;;;;;;;;;;;7.23;100.00;100123.09;6073694;23;20022;-83
2022/02/04 10:35:18;;;;;;;16.47;10.00;;;;;;;7.25;100.00;100123.94;6074117;23;19917;-82
2022/02/04 10:38:00;;;;;;;17.47;10.47;;;;;;;7.17;100.00;100115.31;6122179;23;20472;-82
2022/02/04 10:43:21;;;;;;;18.23;11.80;;;;;;;7.03;100.00;100106.75;6146672;23;20033;-84
2022/02/04 10:46:00;;;;;;;16.43;9.87;;;;;;;6.97;100.00;100104.22;6099885;23;20026;-82
2022/02/04 10:56:28;;;;;;;16.27;8.87;;;;;;;6.82;100.00;100091.34;6120651;23;20026;-82
2022/02/04 11:04:24;;;;;;;12.33;8.43;;;;;;;6.87;100.00;100084.25;6125725;23;20022;-82
2022/02/04 11:09:35;;;;;;;16.40;8.23;;;;;;;6.93;100.00;100078.91;6098074;23;20021;-83
2022/02/04 11:21:41;;;;;;;14.10;8.37;;;;;;;6.99;100.00;100078.81;6098198;23;20021;-82
2022/02/04 11:31:45;;;;;;;11.33;7.13;;;;;;;6.84;100.00;100052.78;6097839;23;20516;-84
2022/02/04 11:34:21;;;;;;;;;;;;;;;6.87;100.00;100050.09;6101371;23;20021;-81
2022/02/04 11:51:31;;;;;;;11.27;7.60;;;;;;;6.83;100.00;100020.41;6117933;23;20084;-83
2022/02/04 11:56:55;;;;;;;11.23;7.57;;;;;;;6.90;100.00;100013.31;6142198;23;20022;-82
2022/02/04 11:59:35;;;;;;;11.60;6.40;;;;;;;6.95;100.00;100000.97;6119577;23;20036;-82
2022/02/04 12:02:23;;;;;;;10.93;7.20;;;;;;;7.01;100.00;100003.50;6117446;23;20517;-83
2022/02/04 12:05:12;;;;;;;9.80;8.10;;;;;;;7.14;100.00;99989.25;6094752;23;20018;-83
2022/02/04 12:07:51;;;;;;;11.53;7.10;;;;;;;7.26;100.00;99978.53;6072783;23;20022;-82
2022/02/04 12:10:29;;;;;;;9.63;7.00;;;;;;;7.32;100.00;99960.03;6118675;23;20819;-84
2022/02/04 12:12:57;;;;;;;9.77;6.17;;;;;;;7.40;100.00;99967.78;6094928;23;20022;-84
2022/02/04 12:15:54;;;;;;;10.77;6.77;;;;;;;7.49;100.00;99962.34;6094607;23;20021;-82
2022/02/04 12:18:43;;;;;;;11.50;6.07;;;;;;;7.52;100.00;99961.41;6117460;23;20093;-81
2022/02/04 12:21:14;;;;;;;9.27;5.70;;;;;;;7.53;100.00;99952.63;6104325;23;20030;-82
2022/02/04 12:23:44;;;;;;;10.47;6.57;;;;;;;7.53;100.00;99947.38;6116836;23;20445;-82
2022/02/04 12:26:12;;;;;;;9.80;6.43;;;;;;;7.44;100.00;99951.06;6094543;23;20338;-83
2022/02/04 12:28:52;;;;;;;8.90;7.27;;;;;;;7.41;100.00;99943.25;6092413;23;20026;-82
2022/02/04 12:31:26;;;;;;;11.00;6.73;;;;;;;7.39;100.00;99942.38;6119539;23;20026;-81
2022/02/04 12:33:58;;;;;;;9.60;6.50;;;;;;;7.42;100.00;99942.34;6093798;23;20484;-83
2022/02/04 12:36:31;;;;;;;9.40;6.17;;;;;;;7.33;100.00;99938.13;6096519;23;20273;-82
2022/02/04 12:39:04;;;;;;;9.20;5.97;;;;;;;7.39;100.00;99938.88;6120636;23;20089;-82
2022/02/04 12:41:37;;;;;;;9.47;5.30;;;;;;;7.33;100.00;99935.50;6097657;23;20040;-82
2022/02/04 12:44:06;;;;;;;8.83;5.90;;;;;;;7.36;100.00;99923.19;6048194;23;20073;-81
2022/02/04 12:46:33;;;;;;;8.53;5.40;;;;;;;7.26;100.00;99926.00;6073752;23;20052;-82
2022/02/04 12:49:08;;;;;;;8.50;6.43;;;;;;;7.22;100.00;99926.94;6119598;23;20404;-83
2022/02/04 12:52:35;;;;;;;8.63;6.30;;;;;;;7.24;100.00;99917.28;6072585;23;20036;-83
2022/02/04 12:55:07;;;;;;;7.90;5.13;;;;;;;7.28;100.00;99916.31;6095762;23;20025;-82
2022/02/04 12:57:42;;;;;;;8.30;6.07;;;;;;;7.28;100.00;99911.06;6097811;23;20034;-82
2022/02/04 13:08:17;;;;;;;9.20;6.00;;;;;;;7.35;100.00;99888.16;6125273;23;20756;-82
2022/02/04 13:11:12;;;;;;;10.43;7.03;;;;;;;7.28;100.00;99889.19;6079811;23;20026;-83
2022/02/04 13:13:49;;;;;;;9.25;6.28;;;;;;;7.24;100.00;99888.38;6072904;23;20093;-83
2022/02/04 13:16:31;;;;;;;7.37;5.20;;;;;;;7.27;100.00;99877.81;6124419;23;20482;-82
2022/02/04 13:18:59;;;;;;;9.40;5.50;;;;;;;7.21;100.00;99874.41;6071743;23;20361;-84
2022/02/04 13:21:26;;;;;;;8.03;5.23;;;;;;;7.18;100.00;99871.88;6120543;23;20052;-82
2022/02/04 13:23:53;;;;;;;7.73;5.23;;;;;;;7.24;100.00;99866.50;6118224;23;20014;-81
2022/02/04 13:26:22;;;;;;;7.20;5.37;;;;;;;7.22;100.00;99847.25;6071963;23;20034;-82
2022/02/04 13:28:55;;;;;;;8.90;5.90;;;;;;;7.24;100.00;99856.84;6121755;23;20123;-81
2022/02/04 13:31:22;;;;;;;7.43;5.70;;;;;;;7.23;100.00;99854.22;6098673;23;20454;-83
2022/02/04 13:33:52;;;;;;;7.17;4.60;;;;;;;7.20;100.00;99846.44;6073347;23;20017;-83
2022/02/04 13:36:39;;;;;;;7.50;5.30;;;;;;;7.13;100.00;99839.56;6100291;23;20072;-81
2022/02/04 13:39:55;;;;;;;8.33;5.03;;;;;;;7.20;100.00;99847.28;6124044;23;20415;-83
2022/02/04 13:42:39;;;;;;;7.72;4.80;;;;;;;7.22;100.00;99837.59;6079421;23;20097;-81
2022/02/04 13:45:43;;;;;;;7.70;5.67;;;;;;;7.17;100.00;99839.47;6102959;23;20021;-82
2022/02/04 13:48:18;;;;;;;6.87;4.50;;;;;;;7.22;100.00;99832.34;6118941;23;20831;-83
2022/02/04 13:51:05;;;;;;;8.40;5.47;;;;;;;7.26;100.00;99822.66;6120577;23;20050;-82
2022/02/04 13:53:38;;;;;;;7.17;5.10;;;;;;;7.25;100.00;99813.91;6073428;23;20361;-82
2022/02/04 13:56:30;;;;;;;7.25;5.15;;;;;;;7.23;100.00;99817.44;6074939;23;20032;-82
2022/02/04 13:59:14;;;;;;;8.43;5.67;;;;;;;7.29;100.00;99818.19;6076490;23;20100;-81
2022/02/04 14:01:52;;;;;;;8.50;5.27;;;;;;;7.25;100.00;99819.19;6099494;23;20030;-82
2022/02/04 14:04:20;;;;;;;7.40;5.20;;;;;;;7.27;100.00;99812.13;6116959;23;20017;-82
2022/02/04 14:06:46;;;;;;;6.43;4.63;;;;;;;7.21;100.00;99814.88;6072335;23;20472;-83
2022/02/04 14:09:20;;;;;;;5.87;4.20;;;;;;;7.20;100.00;99815.75;6118781;23;20037;-83
2022/02/04 14:11:47;;;;;;;6.13;4.73;;;;;;;7.20;100.00;99813.13;6073520;23;20022;-81
2022/02/04 14:14:22;;;;;;;6.57;4.33;;;;;;;7.32;100.00;99809.41;6120701;23;20039;-82
2022/02/04 14:17:01;;;;;;;6.27;4.50;;;;;;;7.31;100.00;99802.41;6122504;23;20365;-82
2022/02/04 14:19:28;;;;;;;7.47;4.27;;;;;;;7.32;100.00;99799.78;6120565;23;20128;-83
2022/02/04 14:21:57;;;;;;;6.40;4.00;;;;;;;7.33;100.00;99808.50;6073234;23;20084;-82
2022/02/04 14:24:24;;;;;;;6.37;4.10;;;;;;;7.25;100.00;99808.66;6073008;23;20022;-84
2022/02/04 14:26:51;;;;;;;7.00;4.63;;;;;;;7.24;100.00;99800.81;6074780;23;20053;-81
2022/02/04 14:29:30;;;;;;;5.87;3.70;;;;;;;7.24;100.00;99812.19;6096069;23;20102;-83
2022/02/04 14:32:16;;;;;;;5.47;3.43;;;;;;;7.27;100.00;99795.50;6098067;23;20021;-82
2022/02/04 14:54:12;;;;;;;4.87;3.37;;;;;;;7.33;100.00;99754.19;6105295;23;20026;-82
2022/02/04 15:02:05;;;;;;;5.93;3.40;;;;;;;7.19;100.00;99743.13;6102490;23;20519;-82
2022/02/04 15:07:05;;;;;;;7.00;3.33;;;;;;;7.26;100.00;99731.56;6103846;23;20021;-82
2022/02/04 15:09:33;;;;;;;5.87;3.77;;;;;;;7.19;100.00;99731.75;6100673;23;20044;-82
2022/02/04 15:12:00;;;;;;;4.57;2.90;;;;;;;7.21;100.00;99732.56;6103165;23;20329;-82
2022/02/04 15:14:27;;;;;;;6.00;3.80;;;;;;;7.22;100.00;99727.28;6100929;23;20076;-82
2022/02/04 15:16:53;;;;;;;8.10;5.53;;;;;;;7.22;100.00;99721.16;6127512;23;20028;-82
2022/02/04 15:19:20;;;;;;;5.17;3.73;;;;;;;7.05;100.00;99719.75;6100890;23;20022;-82
2022/02/04 15:21:48;;;;;;;4.57;3.00;;;;;;;7.22;100.00;99724.66;6078450;23;20744;-81
2022/02/04 15:24:15;;;;;;;4.70;3.10;;;;;;;7.21;100.00;99733.44;6124892;23;20024;-81
2022/02/04 15:26:42;;;;;;;4.23;2.60;;;;;;;7.18;100.00;99715.13;6103508;23;20029;-82
2022/02/04 15:29:14;;;;;;;4.63;2.90;;;;;;;7.18;100.00;99707.22;6099751;23;20021;-80
2022/02/04 15:34:12;;;;;;;4.13;2.73;;;;;;;7.20;100.00;99705.44;6124672;23;20028;-79
2022/02/04 15:36:42;;;;;;;5.47;3.30;;;;;;;7.23;100.00;99700.13;6103830;23;20028;-80
2022/02/04 15:39:14;;;;;;;3.63;2.83;;;;;;;7.13;100.00;99701.22;6126507;23;20018;-79
2022/02/04 15:41:45;;;;;;;4.67;2.60;;;;;;;7.13;100.00;99701.22;6127871;23;20414;-79
2022/02/04 15:44:22;;;;;;;3.87;2.43;;;;;;;7.14;100.00;99686.31;6125519;23;20148;-79
2022/02/04 15:54:53;;;;;;;3.87;2.60;;;;;;;7.03;100.00;99671.66;6151116;23;20013;-79
2022/02/04 15:57:32;;;;;;;4.47;2.93;;;;;;;6.99;100.00;99672.63;6131699;23;20029;-79
2022/02/04 16:05:00;;;;;;;5.10;4.33;;;;;;;6.88;100.00;99681.63;6126508;23;20373;-79
2022/02/04 16:07:27;;;;;;;4.97;4.33;;;;;;;6.82;100.00;99679.16;6128517;23;20021;-79
2022/02/04 16:10:02;;;;;;;5.20;3.87;;;;;;;6.73;100.00;99670.56;6102129;23;20029;-79
2022/02/04 16:12:38;;;;;;;4.47;3.70;;;;;;;6.84;100.00;99675.59;6130334;23;20021;-79
2022/02/04 16:15:19;;;;;;;11.53;7.40;;;;;;;6.75;100.00;99676.63;6104252;23;20022;-79
2022/02/04 16:17:54;;;;;;;6.17;4.43;;;;;;;6.75;100.00;99671.38;6107260;23;20033;-80
2022/02/04 16:20:37;;;;;;;4.87;3.53;;;;;;;6.70;100.00;99667.97;6127083;23;20045;-80
2022/02/04 16:23:14;;;;;;;3.73;2.70;;;;;;;6.69;100.00;99663.63;6105219;23;20025;-79
2022/02/04 16:25:56;;;;;;;5.13;3.80;;;;;;;6.70;100.00;99659.25;6104402;23;20683;-79
2022/02/04 16:28:39;;;;;;;4.07;2.47;;;;;;;6.72;100.00;99649.56;6124928;23;20021;-79
2022/02/04 16:31:14;;;;;;;5.63;3.63;;;;;;;6.66;100.00;99636.59;6127969;23;20029;-81
2022/02/04 16:33:41;;;;;;;4.27;3.27;;;;;;;6.67;100.00;99639.19;6126386;23;20385;-80
2022/02/04 16:36:14;;;;;;;3.93;2.73;;;;;;;6.63;100.00;99632.25;6102714;23;20033;-80
2022/02/04 16:38:54;;;;;;;3.30;2.20;;;;;;;6.63;100.00;99619.13;6096797;23;20026;-80
2022/02/04 16:41:32;;;;;;;3.80;2.47;;;;;;;6.62;100.00;99627.03;6099218;23;20021;-79
2022/02/04 16:43:59;;;;;;;3.73;2.10;;;;;;;6.67;100.00;99619.94;6098003;23;20360;-79
2022/02/04 16:46:26;;;;;;;3.00;2.40;;;;;;;6.66;100.00;99621.72;6123540;23;20098;-79
2022/02/04 16:48:53;;;;;;;2.83;1.80;;;;;;;6.71;100.00;99611.09;6122639;23;20471;-79
2022/02/04 16:51:20;;;;;;;3.47;2.20;;;;;;;6.77;100.00;99619.72;6099366;23;20022;-79
2022/02/04 16:53:46;;;;;;;4.17;2.10;;;;;;;6.72;100.00;99613.69;6121339;23;20021;-79
2022/02/04 16:56:13;;;;;;;5.20;4.77;;;;;;;6.76;100.00;99615.38;6075852;23;20033;-80
2022/02/04 16:58:40;;;;;;;15.30;8.40;;;;;;;6.73;100.00;99604.94;6096773;23;20029;-79
2022/02/04 17:01:06;;;;;;;3.10;2.30;;;;;;;6.73;100.00;99604.94;6122885;23;20029;-80
2022/02/04 17:03:33;;;;;;;6.67;3.20;;;;;;;6.73;100.00;99604.94;6121391;23;20028;-80
2022/02/04 17:06:03;;;;;;;28.10;13.70;;;;;;;6.71;100.00;99603.22;6075169;23;20018;-81
2022/02/04 17:08:35;;;;;;;42.50;21.33;;;;;;;6.73;100.00;99591.81;6096022;23;20025;-81
2022/02/04 17:11:09;;;;;;;12.30;6.03;;;;;;;6.73;100.00;99588.34;6121862;23;20022;-81
2022/02/04 17:13:35;;;;;;;15.67;9.83;;;;;;;6.62;100.00;99583.28;6121181;23;20022;-81
2022/02/04 17:16:03;;;;;;;26.03;13.90;;;;;;;6.66;100.00;99577.09;6099344;23;20061;-80
2022/02/04 17:18:30;;;;;;;35.90;19.93;;;;;;;6.66;100.00;99569.22;6098347;23;20029;-82
2022/02/04 17:21:01;;;;;;;7.17;4.40;;;;;;;6.64;100.00;99578.00;6099752;23;20025;-82
2022/02/04 17:23:31;;;;;;;7.43;4.67;;;;;;;6.67;100.00;99577.97;6121796;23;20029;-81
2022/02/04 17:25:59;;;;;;;2.20;1.53;;;;;;;6.62;100.00;99577.19;6123474;23;20030;-80
2022/02/04 17:28:28;;;;;;;2.00;1.50;;;;;;;6.58;100.00;99568.53;6098118;23;20033;-80
2022/02/04 17:30:55;;;;;;;1.80;1.30;;;;;;;6.58;100.00;99563.28;6124463;23;20875;-81